Time;durP1;ratioP1;P1;durP2;ratioP2;P2;SDS_P1;SDS_P2;PMS_P1;PMS_P2;Temp;Humidity;BMP_temperature;BMP_pressure;BME280_temperature;BME280_humidity;BME280_pressure;Samples;Min_cycle;Max_cycle;Signal;HPM_P1;HPM_P2
2022/01/01 00:01:31;;;;;;;38.67;28.45;;;9.40;99.90;;;;;;4974164;28;20193;-53
2022/01/01 00:03:57;;;;;;;37.87;29.03;;;9.50;99.90;;;;;;4974139;28;20597;-52
2022/01/01 00:06:22;;;;;;;35.57;28.50;;;9.40;99.90;;;;;;4980160;28;20181;-52
2022/01/01 00:08:48;;;;;;;34.63;28.00;;;9.40;99.90;;;;;;4988061;28;20247;-52
2022/01/01 00:11:14;;;;;;;35.33;28.87;;;9.50;99.90;;;;;;4973651;28;20565;-52
2022/01/01 00:13:40;;;;;;;39.43;31.90;;;9.70;99.90;;;;;;4973036;28;20275;-52
2022/01/01 00:16:09;;;;;;;39.13;31.73;;;9.30;99.90;;;;;;4973308;28;20196;-53
2022/01/01 00:18:36;;;;;;;41.25;33.90;;;9.60;99.90;;;;;;4984677;28;20795;-52
2022/01/01 00:21:02;;;;;;;38.83;33.85;;;9.20;99.90;;;;;;4971783;28;20196;-51
2022/01/01 00:23:28;;;;;;;39.72;32.10;;;9.50;99.90;;;;;;4973797;28;20247;-52
2022/01/01 00:25:53;;;;;;;38.70;31.30;;;9.60;99.90;;;;;;4973581;28;20219;-52
2022/01/01 00:28:19;;;;;;;37.00;30.37;;;9.80;99.90;;;;;;4972570;28;20201;-52
2022/01/01 00:30:45;;;;;;;37.23;29.60;;;9.80;99.90;;;;;;4973418;28;20189;-52
2022/01/01 00:33:10;;;;;;;32.87;29.13;;;9.30;99.90;;;;;;4973689;28;20188;-53
2022/01/01 00:35:36;;;;;;;33.37;27.07;;;10.00;99.90;;;;;;4976632;28;20189;-53
2022/01/01 00:38:02;;;;;;;32.50;26.30;;;10.00;99.90;;;;;;4980110;28;20204;-53
2022/01/01 00:40:27;;;;;;;28.70;23.40;;;10.00;99.90;;;;;;4973764;28;20976;-53
2022/01/01 00:42:53;;;;;;;28.30;24.07;;;10.10;99.90;;;;;;4982026;28;20221;-53
2022/01/01 00:45:19;;;;;;;24.90;22.20;;;9.90;99.90;;;;;;4973428;28;20646;-53
2022/01/01 00:47:44;;;;;;;30.17;26.80;;;9.70;99.90;;;;;;4973311;28;20212;-52
2022/01/01 00:50:11;;;;;;;31.57;26.50;;;9.70;99.90;;;;;;4972819;28;20205;-52
2022/01/01 00:52:37;;;;;;;30.23;25.10;;;9.70;99.90;;;;;;4973497;28;20215;-53
2022/01/01 00:55:03;;;;;;;33.77;27.50;;;9.80;99.90;;;;;;4973193;28;20629;-53
2022/01/01 00:57:28;;;;;;;31.33;24.20;;;10.10;99.90;;;;;;4973127;28;20195;-52
2022/01/01 00:59:54;;;;;;;25.50;21.43;;;10.00;99.90;;;;;;4971718;28;20216;-52
2022/01/01 01:02:20;;;;;;;25.33;22.70;;;10.30;99.90;;;;;;4973068;28;20212;-53
2022/01/01 01:04:45;;;;;;;25.67;20.97;;;10.40;99.90;;;;;;4973300;28;20283;-53
2022/01/01 01:07:12;;;;;;;26.30;20.03;;;10.50;99.90;;;;;;4972353;28;20216;-52
2022/01/01 01:09:38;;;;;;;27.00;21.98;;;10.50;99.90;;;;;;4971664;28;20209;-53
2022/01/01 01:12:04;;;;;;;28.70;24.07;;;10.30;99.90;;;;;;4975137;28;20207;-53
2022/01/01 01:14:39;;;;;;;37.28;30.58;;;10.30;99.90;;;;;;4973795;28;20532;-53
2022/01/01 01:17:05;;;;;;;37.10;27.33;;;10.60;99.90;;;;;;4987525;28;20657;-53
2022/01/01 01:19:30;;;;;;;30.27;25.90;;;10.50;99.90;;;;;;4972910;28;20216;-53
2022/01/01 01:21:57;;;;;;;30.40;25.27;;;10.40;99.90;;;;;;4972134;28;20307;-53
2022/01/01 01:24:25;;;;;;;30.92;25.30;;;10.60;99.90;;;;;;4972884;28;20614;-52
2022/01/01 01:26:51;;;;;;;27.95;24.08;;;10.60;99.90;;;;;;4972796;28;20188;-53
2022/01/01 01:29:19;;;;;;;24.85;21.83;;;10.50;99.90;;;;;;4984009;28;20690;-53
2022/01/01 01:31:45;;;;;;;23.55;20.52;;;10.60;99.90;;;;;;4976264;28;20409;-53
2022/01/01 01:34:10;;;;;;;24.27;19.60;;;10.60;99.90;;;;;;4986724;28;20661;-52
2022/01/01 01:36:36;;;;;;;18.67;16.07;;;10.50;99.90;;;;;;4972293;28;20805;-52
2022/01/01 01:39:02;;;;;;;21.50;17.70;;;10.30;99.90;;;;;;4972500;28;20260;-53
2022/01/01 01:41:30;;;;;;;22.25;19.85;;;10.40;99.90;;;;;;4972567;28;20176;-53
2022/01/01 01:43:58;;;;;;;25.30;20.00;;;10.40;99.90;;;;;;4971818;28;20201;-53
2022/01/01 01:46:25;;;;;;;23.77;20.45;;;10.10;99.90;;;;;;4972258;28;20354;-53
2022/01/01 01:48:51;;;;;;;23.38;19.63;;;10.20;99.90;;;;;;4980345;28;20662;-53
2022/01/01 01:51:17;;;;;;;27.13;18.30;;;10.30;99.90;;;;;;4971801;28;20184;-53
2022/01/01 01:53:43;;;;;;;22.20;17.03;;;10.30;99.90;;;;;;4972220;28;20200;-53
2022/01/01 01:56:09;;;;;;;23.42;17.13;;;10.30;99.90;;;;;;4972159;28;20197;-52
2022/01/01 01:58:35;;;;;;;22.80;16.60;;;10.40;99.90;;;;;;4975053;28;20235;-53
2022/01/01 02:03:38;;;;;;;18.30;15.80;;;10.30;99.90;;;;;;4973972;28;20472;-52
2022/01/01 02:06:07;;;;;;;18.13;15.43;;;10.30;99.90;;;;;;4972401;28;20223;-53
2022/01/01 02:08:33;;;;;;;21.92;16.42;;;10.20;99.90;;;;;;4971805;28;20712;-52
2022/01/01 02:11:00;;;;;;;22.33;17.10;;;10.40;99.90;;;;;;4971880;28;20189;-52
2022/01/01 02:13:31;;;;;;;19.38;15.45;;;10.30;99.90;;;;;;4971442;28;20566;-52
2022/01/01 02:16:14;;;;;;;20.05;17.13;;;10.30;99.90;;;;;;4971937;28;20185;-53
2022/01/01 02:18:42;;;;;;;19.60;16.95;;;10.40;99.90;;;;;;4971633;28;20201;-52
2022/01/01 02:21:08;;;;;;;20.20;16.48;;;10.10;99.90;;;;;;4976907;28;20189;-52
2022/01/01 02:23:33;;;;;;;21.53;16.00;;;10.20;99.90;;;;;;4975479;28;20221;-53
2022/01/01 02:25:59;;;;;;;17.17;15.23;;;10.20;99.90;;;;;;4971921;28;20625;-53
2022/01/01 02:28:25;;;;;;;18.87;15.00;;;10.20;99.90;;;;;;4981383;28;20220;-52
2022/01/01 02:30:50;;;;;;;17.00;15.20;;;10.00;99.90;;;;;;4971663;28;20311;-52
2022/01/01 02:33:17;;;;;;;16.50;14.60;;;10.30;99.90;;;;;;4971684;28;20272;-52
2022/01/01 02:35:43;;;;;;;16.92;13.52;;;10.20;99.90;;;;;;4976183;28;20570;-53
2022/01/01 02:38:09;;;;;;;16.75;13.57;;;10.30;99.90;;;;;;4974627;28;20195;-53
2022/01/01 02:40:36;;;;;;;15.60;13.50;;;9.90;99.90;;;;;;4971427;28;20292;-53
2022/01/01 02:43:01;;;;;;;17.13;14.52;;;10.20;99.90;;;;;;4977048;28;20637;-52
2022/01/01 02:45:29;;;;;;;16.17;13.43;;;10.00;99.90;;;;;;4975565;28;20220;-53
2022/01/01 02:47:54;;;;;;;17.70;13.48;;;10.10;99.90;;;;;;4975402;28;20210;-53
2022/01/01 02:50:20;;;;;;;16.60;13.27;;;10.20;99.90;;;;;;4975431;28;20268;-52
2022/01/01 02:52:47;;;;;;;17.93;13.50;;;10.20;99.90;;;;;;4983619;28;20192;-52
2022/01/01 02:55:13;;;;;;;15.70;12.90;;;10.00;99.90;;;;;;4976070;28;20272;-52
2022/01/01 02:57:39;;;;;;;15.67;13.47;;;9.90;99.90;;;;;;4974800;28;20678;-52
2022/01/01 03:00:06;;;;;;;15.63;13.00;;;10.10;99.90;;;;;;4975480;28;20509;-52
2022/01/01 03:02:31;;;;;;;14.93;13.15;;;10.10;99.90;;;;;;4975269;28;20209;-52
2022/01/01 03:04:57;;;;;;;15.90;13.20;;;10.00;99.90;;;;;;4974886;28;20204;-53
2022/01/01 03:07:23;;;;;;;15.87;14.17;;;9.70;99.90;;;;;;4975074;28;20665;-52
2022/01/01 03:09:48;;;;;;;15.50;12.37;;;10.20;99.90;;;;;;4975123;28;20209;-52
2022/01/01 03:12:15;;;;;;;15.33;12.87;;;10.30;99.90;;;;;;4980239;28;20188;-52
2022/01/01 03:14:41;;;;;;;16.30;13.60;;;10.00;99.90;;;;;;4983591;28;20192;-52
2022/01/01 03:17:07;;;;;;;15.67;13.43;;;10.10;99.90;;;;;;4974716;28;20192;-52
2022/01/01 03:19:34;;;;;;;15.77;12.68;;;10.00;99.90;;;;;;4974917;28;20402;-53
2022/01/01 03:22:00;;;;;;;15.75;12.80;;;10.40;99.90;;;;;;4980795;28;20303;-52
2022/01/01 03:24:26;;;;;;;13.98;12.00;;;10.40;99.90;;;;;;4990024;28;20212;-53
2022/01/01 03:26:52;;;;;;;13.82;11.45;;;10.20;99.90;;;;;;4974259;28;20188;-52
2022/01/01 03:29:18;;;;;;;14.13;11.63;;;10.40;99.90;;;;;;4981882;28;20554;-52
2022/01/01 03:31:43;;;;;;;15.37;11.97;;;10.50;99.90;;;;;;4976516;28;20651;-52
2022/01/01 03:34:09;;;;;;;19.60;12.10;;;10.40;99.90;;;;;;4974663;28;20547;-52
2022/01/01 03:36:35;;;;;;;14.80;12.27;;;10.80;99.90;;;;;;4974325;28;20188;-52
2022/01/01 03:39:00;;;;;;;15.37;12.73;;;10.40;99.90;;;;;;4974618;28;20787;-52
2022/01/01 03:41:26;;;;;;;13.00;11.70;;;10.40;99.90;;;;;;4974736;28;20181;-52
2022/01/01 03:43:52;;;;;;;15.97;11.53;;;10.60;99.90;;;;;;4980870;28;20833;-52
2022/01/01 03:46:18;;;;;;;13.02;11.20;;;10.60;99.90;;;;;;4975003;28;20436;-53
2022/01/01 03:48:44;;;;;;;15.53;11.77;;;10.50;99.90;;;;;;4974050;28;20283;-53
2022/01/01 03:51:10;;;;;;;15.00;11.47;;;10.50;99.90;;;;;;4973983;28;20185;-52
2022/01/01 03:53:35;;;;;;;15.23;11.93;;;10.50;99.90;;;;;;4974509;28;20203;-53
2022/01/01 03:56:01;;;;;;;13.33;10.53;;;10.50;99.90;;;;;;4974190;28;20192;-53
2022/01/01 03:58:27;;;;;;;10.80;9.70;;;10.70;99.90;;;;;;4977585;28;20670;-53
2022/01/01 04:00:52;;;;;;;10.47;8.83;;;10.70;99.90;;;;;;4974511;28;20192;-53
2022/01/01 04:03:18;;;;;;;14.23;12.13;;;10.80;99.90;;;;;;4981140;28;20299;-53
2022/01/01 04:05:45;;;;;;;13.05;11.48;;;11.00;99.90;;;;;;4979352;28;20185;-53
2022/01/01 04:08:12;;;;;;;13.18;11.45;;;10.80;99.90;;;;;;4983495;28;20726;-53
2022/01/01 04:10:38;;;;;;;13.98;11.65;;;11.00;99.90;;;;;;4974089;28;20185;-53
2022/01/01 04:13:06;;;;;;;12.00;10.38;;;11.30;99.90;;;;;;4973657;28;20196;-53
2022/01/01 04:15:32;;;;;;;12.20;10.38;;;11.00;99.90;;;;;;4973977;28;20194;-53
2022/01/01 04:18:03;;;;;;;12.68;10.02;;;11.00;99.90;;;;;;4973732;28;20272;-52
2022/01/01 04:20:29;;;;;;;10.82;9.55;;;11.10;99.90;;;;;;4978599;28;20189;-53
2022/01/01 04:22:56;;;;;;;12.38;10.80;;;11.40;99.90;;;;;;4982186;28;20222;-53
2022/01/01 04:25:22;;;;;;;11.27;10.07;;;11.20;99.90;;;;;;4973794;28;20269;-52
2022/01/01 04:27:49;;;;;;;11.13;10.02;;;10.90;99.90;;;;;;4981731;28;20190;-52
2022/01/01 04:30:16;;;;;;;13.88;10.93;;;11.20;99.90;;;;;;4974710;28;20695;-52
2022/01/01 04:32:42;;;;;;;12.73;10.82;;;11.20;99.90;;;;;;4973883;28;20287;-52
2022/01/01 04:35:08;;;;;;;11.43;10.23;;;11.20;99.90;;;;;;4973307;28;20748;-52
2022/01/01 04:37:34;;;;;;;11.68;9.77;;;11.00;99.90;;;;;;4973915;28;20281;-51
2022/01/01 04:39:59;;;;;;;11.40;9.83;;;11.20;99.90;;;;;;4973414;28;20288;-51
2022/01/01 04:42:26;;;;;;;12.60;8.63;;;11.00;99.90;;;;;;4978458;28;20505;-51
2022/01/01 04:44:53;;;;;;;12.32;9.75;;;11.20;99.90;;;;;;4974444;28;20444;-52
2022/01/01 04:47:19;;;;;;;9.10;8.15;;;10.90;99.90;;;;;;4973474;28;20220;-52
2022/01/01 04:49:44;;;;;;;10.32;8.02;;;10.60;99.90;;;;;;4973252;28;20213;-52
2022/01/01 04:52:10;;;;;;;10.00;7.97;;;10.80;99.90;;;;;;4977237;28;20183;-52
2022/01/01 04:54:40;;;;;;;9.52;8.52;;;10.90;99.90;;;;;;4978491;28;20276;-52
2022/01/01 04:57:07;;;;;;;10.70;7.47;;;10.70;99.90;;;;;;4972760;28;20272;-52
2022/01/01 04:59:34;;;;;;;12.27;8.00;;;10.80;99.90;;;;;;4972993;28;20209;-52
2022/01/01 05:02:00;;;;;;;9.15;7.43;;;10.50;99.90;;;;;;4973264;28;20685;-52
2022/01/01 05:04:26;;;;;;;7.93;7.10;;;10.60;99.90;;;;;;4988396;28;20194;-52
2022/01/01 05:06:52;;;;;;;7.20;6.50;;;10.60;99.90;;;;;;4971789;28;20455;-52
2022/01/01 05:09:18;;;;;;;7.60;6.10;;;10.40;99.90;;;;;;4972938;28;20263;-53
2022/01/01 05:11:44;;;;;;;8.90;7.43;;;10.30;99.90;;;;;;4982478;28;20431;-52
2022/01/01 05:14:11;;;;;;;8.93;6.03;;;10.30;99.90;;;;;;4973061;28;20184;-52
2022/01/01 05:16:37;;;;;;;7.10;6.40;;;10.20;99.90;;;;;;4972993;28;20189;-52
2022/01/01 05:19:02;;;;;;;7.53;6.17;;;10.20;99.90;;;;;;4972754;28;20209;-52
2022/01/01 05:21:32;;;;;;;7.13;6.37;;;10.10;99.90;;;;;;4973213;28;20635;-53
2022/01/01 05:23:58;;;;;;;6.78;5.60;;;10.40;99.90;;;;;;4983774;28;20875;-52
2022/01/01 05:26:24;;;;;;;6.80;6.10;;;10.10;99.90;;;;;;4972697;28;20180;-52
2022/01/01 05:28:50;;;;;;;8.50;6.67;;;10.10;99.90;;;;;;4972562;28;20215;-53
2022/01/01 05:31:19;;;;;;;6.67;5.97;;;10.10;99.90;;;;;;4972599;28;20781;-52
2022/01/01 05:33:48;;;;;;;6.57;5.75;;;10.00;99.90;;;;;;4972783;28;20486;-52
2022/01/01 05:36:15;;;;;;;7.15;6.20;;;10.00;99.90;;;;;;4971832;28;20220;-53
2022/01/01 05:38:42;;;;;;;7.28;5.90;;;9.50;99.90;;;;;;4972877;28;20204;-52
2022/01/01 05:41:08;;;;;;;8.00;6.10;;;9.90;99.90;;;;;;4987286;28;20208;-52
2022/01/01 05:43:34;;;;;;;6.00;5.40;;;9.50;99.90;;;;;;4972025;28;20212;-52
2022/01/01 05:46:00;;;;;;;5.80;5.27;;;9.80;99.90;;;;;;4983791;28;20435;-53
2022/01/01 05:48:26;;;;;;;5.15;4.47;;;9.80;99.90;;;;;;4972238;28;20686;-52
2022/01/01 05:50:51;;;;;;;5.77;5.20;;;9.80;99.90;;;;;;4972280;28;20272;-53
2022/01/01 05:53:19;;;;;;;6.73;5.57;;;9.60;99.90;;;;;;4969483;28;20650;-52
2022/01/01 05:55:45;;;;;;;5.38;4.55;;;9.90;99.90;;;;;;4971888;28;20188;-52
2022/01/01 05:58:11;;;;;;;4.53;4.00;;;9.70;99.90;;;;;;4971093;28;20659;-52
2022/01/01 06:00:37;;;;;;;5.13;4.73;;;9.80;99.90;;;;;;4972128;28;20266;-52
2022/01/01 06:03:03;;;;;;;6.85;5.95;;;9.80;99.90;;;;;;4973128;28;20527;-52
2022/01/01 06:05:29;;;;;;;6.93;5.77;;;9.50;99.90;;;;;;4971828;28;20547;-53
2022/01/01 06:07:56;;;;;;;6.65;5.60;;;9.80;99.90;;;;;;4986943;28;20560;-53
2022/01/01 06:10:23;;;;;;;6.32;5.65;;;9.70;99.90;;;;;;4971975;28;20234;-53
2022/01/01 06:12:48;;;;;;;6.57;5.97;;;9.60;99.90;;;;;;4971589;28;20196;-52
2022/01/01 06:15:14;;;;;;;5.80;5.20;;;9.80;99.90;;;;;;4971881;28;20185;-52
2022/01/01 06:17:40;;;;;;;5.80;4.90;;;10.00;99.90;;;;;;4970620;28;20435;-52
2022/01/01 06:20:06;;;;;;;5.97;5.20;;;9.80;99.90;;;;;;4998498;28;20378;-52
2022/01/01 06:22:32;;;;;;;5.50;4.90;;;10.10;99.90;;;;;;4975529;28;20212;-52
2022/01/01 06:24:58;;;;;;;5.80;4.63;;;9.80;99.90;;;;;;4971836;28;20190;-52
2022/01/01 06:27:23;;;;;;;5.20;4.63;;;10.10;99.90;;;;;;4971185;28;20194;-53
2022/01/01 06:29:50;;;;;;;5.30;4.80;;;10.00;99.90;;;;;;4971737;28;20220;-52
2022/01/01 06:32:15;;;;;;;4.93;4.43;;;10.20;99.90;;;;;;4971776;28;20552;-53
2022/01/01 06:34:41;;;;;;;4.70;4.30;;;10.00;99.90;;;;;;4971682;28;20223;-53
2022/01/01 06:37:07;;;;;;;4.83;4.17;;;10.20;99.90;;;;;;4971287;28;20224;-52
2022/01/01 06:39:32;;;;;;;5.27;4.20;;;10.30;99.90;;;;;;4971557;28;20244;-53
2022/01/01 06:41:58;;;;;;;4.73;4.27;;;10.40;99.90;;;;;;4971198;28;20319;-53
2022/01/01 06:44:24;;;;;;;5.93;4.90;;;10.40;99.90;;;;;;4971680;28;20200;-53
2022/01/01 06:46:49;;;;;;;6.20;4.73;;;9.80;99.90;;;;;;4971386;28;20184;-52
2022/01/01 06:49:15;;;;;;;4.53;4.00;;;10.30;99.90;;;;;;4970182;28;20212;-52
2022/01/01 06:51:41;;;;;;;4.30;3.83;;;10.60;99.90;;;;;;4970980;28;20203;-52
2022/01/01 06:54:07;;;;;;;4.40;4.00;;;10.40;99.90;;;;;;4971833;28;20185;-53
2022/01/01 06:56:32;;;;;;;4.73;4.33;;;10.30;99.90;;;;;;4971642;28;20248;-53
2022/01/01 06:58:58;;;;;;;10.17;3.93;;;10.80;99.90;;;;;;4970885;28;20583;-53
2022/01/01 07:01:23;;;;;;;4.00;3.57;;;10.50;99.90;;;;;;4971773;28;20225;-53
2022/01/01 07:03:49;;;;;;;4.50;4.10;;;10.60;99.90;;;;;;4971175;28;20230;-53
2022/01/01 07:06:15;;;;;;;4.90;4.07;;;10.40;99.90;;;;;;4970956;28;20717;-53
2022/01/01 07:08:40;;;;;;;4.50;3.77;;;10.40;99.90;;;;;;4971044;28;20209;-53
2022/01/01 07:11:06;;;;;;;6.93;3.63;;;10.40;99.90;;;;;;4977845;28;20190;-52
2022/01/01 07:13:32;;;;;;;4.90;3.87;;;10.40;99.90;;;;;;4970987;28;20613;-53
2022/01/01 07:15:58;;;;;;;5.70;4.70;;;10.70;99.90;;;;;;4971754;28;20432;-53
2022/01/01 07:18:23;;;;;;;5.93;4.70;;;10.50;99.90;;;;;;4971297;28;20202;-52
2022/01/01 07:20:49;;;;;;;5.47;4.97;;;10.60;99.90;;;;;;4971496;28;20437;-53
2022/01/01 07:23:15;;;;;;;6.23;5.40;;;10.30;99.90;;;;;;4974398;28;20212;-53
2022/01/01 07:25:40;;;;;;;4.90;4.13;;;10.40;99.90;;;;;;4971608;28;20440;-53
2022/01/01 07:28:07;;;;;;;5.40;4.77;;;10.50;99.90;;;;;;4970649;28;20201;-54
2022/01/01 07:30:33;;;;;;;4.25;3.85;;;10.70;99.90;;;;;;4972371;28;20568;-53
2022/01/01 07:32:58;;;;;;;4.30;3.70;;;10.60;99.90;;;;;;4974731;28;20204;-53
2022/01/01 07:35:24;;;;;;;4.50;4.10;;;10.40;99.90;;;;;;4974351;28;20203;-52
2022/01/01 07:37:52;;;;;;;4.90;4.40;;;10.30;99.90;;;;;;4974429;28;20196;-53
2022/01/01 07:40:18;;;;;;;5.13;4.30;;;10.70;99.90;;;;;;4974774;28;20264;-52
2022/01/01 07:42:45;;;;;;;5.00;4.53;;;10.70;99.90;;;;;;4974039;28;20208;-53
2022/01/01 07:45:12;;;;;;;5.38;4.88;;;10.60;99.90;;;;;;4980903;28;20233;-53
2022/01/01 07:47:38;;;;;;;4.97;4.55;;;10.50;99.90;;;;;;4974355;28;20692;-53
2022/01/01 07:50:05;;;;;;;5.78;4.80;;;10.80;99.90;;;;;;4977886;28;20235;-52
2022/01/01 07:52:31;;;;;;;4.63;3.83;;;10.60;99.90;;;;;;4977441;28;20192;-52
2022/01/01 07:54:57;;;;;;;5.43;4.40;;;10.40;99.90;;;;;;4974917;28;20190;-52
2022/01/01 07:57:22;;;;;;;5.67;4.30;;;10.70;99.90;;;;;;4976807;28;20444;-52
2022/01/01 07:59:48;;;;;;;4.73;4.20;;;10.60;99.90;;;;;;4974478;28;20567;-53
2022/01/01 08:02:14;;;;;;;5.30;4.20;;;10.80;99.90;;;;;;4974607;28;20215;-53
2022/01/01 08:04:39;;;;;;;5.30;4.03;;;10.80;99.90;;;;;;4974940;28;20184;-53
2022/01/01 08:07:05;;;;;;;6.10;4.67;;;10.80;99.90;;;;;;4972095;28;20272;-52
2022/01/01 08:09:30;;;;;;;4.47;4.07;;;10.90;99.90;;;;;;4973872;28;20697;-52
2022/01/01 08:11:56;;;;;;;4.70;4.03;;;10.70;99.90;;;;;;4974915;28;20220;-52
2022/01/01 08:14:22;;;;;;;4.77;3.80;;;10.80;99.90;;;;;;4985269;28;20190;-53
2022/01/01 08:16:59;;;;;;;6.25;4.28;;;10.80;99.90;;;;;;4974394;28;20267;-52
2022/01/01 08:19:25;;;;;;;4.75;4.30;;;10.40;99.90;;;;;;4980751;28;20208;-52
2022/01/01 08:21:51;;;;;;;4.40;3.97;;;10.60;99.90;;;;;;4973525;28;20209;-51
2022/01/01 08:24:17;;;;;;;4.53;3.93;;;10.30;99.90;;;;;;4974109;28;20285;-51
2022/01/01 08:26:42;;;;;;;4.60;3.80;;;10.20;99.90;;;;;;4973548;28;20212;-53
2022/01/01 08:29:09;;;;;;;4.73;3.70;;;10.50;99.90;;;;;;4983024;28;20487;-53
2022/01/01 08:31:34;;;;;;;4.38;3.60;;;10.50;99.90;;;;;;4974076;28;20430;-52
2022/01/01 08:34:00;;;;;;;4.13;3.73;;;10.70;99.90;;;;;;4973728;28;20189;-53
2022/01/01 08:36:25;;;;;;;5.40;3.70;;;10.50;99.90;;;;;;4979279;28;20204;-52
2022/01/01 08:38:51;;;;;;;4.20;3.80;;;10.00;99.90;;;;;;4973446;28;20240;-51
2022/01/01 08:41:17;;;;;;;5.90;3.47;;;10.30;99.90;;;;;;4972576;28;20231;-51
2022/01/01 08:43:42;;;;;;;4.03;3.60;;;10.50;99.90;;;;;;4972952;28;20291;-51
2022/01/01 08:46:08;;;;;;;4.07;3.67;;;10.50;99.90;;;;;;4973530;28;20184;-51
2022/01/01 08:48:34;;;;;;;4.43;3.70;;;10.40;99.90;;;;;;4973222;28;20204;-52
2022/01/01 08:51:10;;;;;;;4.10;3.70;;;10.40;99.90;;;;;;4975388;28;20184;-51
2022/01/01 08:53:36;;;;;;;5.50;4.30;;;10.60;99.90;;;;;;4974036;28;20455;-51
2022/01/01 08:56:02;;;;;;;4.97;3.67;;;10.70;99.90;;;;;;4973460;28;20192;-52
2022/01/01 08:58:27;;;;;;;4.10;3.40;;;10.90;99.90;;;;;;4972487;28;20223;-52
2022/01/01 09:00:53;;;;;;;5.07;3.53;;;10.80;99.90;;;;;;4973384;28;20189;-52
2022/01/01 09:03:19;;;;;;;4.43;3.43;;;10.70;99.90;;;;;;4973113;28;20529;-52
2022/01/01 09:05:44;;;;;;;4.60;3.63;;;10.60;99.90;;;;;;4972902;28;20193;-52
2022/01/01 09:08:11;;;;;;;3.70;3.30;;;10.80;99.90;;;;;;4972924;28;20621;-52
2022/01/01 09:10:37;;;;;;;3.10;2.83;;;10.90;99.90;;;;;;4974343;28;20181;-53
2022/01/01 09:13:02;;;;;;;5.20;3.50;;;11.10;99.90;;;;;;4971131;28;20189;-53
2022/01/01 09:15:28;;;;;;;4.30;3.47;;;10.90;99.90;;;;;;4972629;28;20192;-52
2022/01/01 09:17:54;;;;;;;3.20;2.90;;;11.00;99.90;;;;;;4972501;28;20667;-52
2022/01/01 09:20:19;;;;;;;3.20;2.90;;;11.10;99.90;;;;;;4972510;28;20208;-52
2022/01/01 09:22:45;;;;;;;3.63;3.03;;;11.50;99.90;;;;;;4982344;28;20213;-52
2022/01/01 09:25:12;;;;;;;3.13;2.83;;;11.30;99.90;;;;;;4972785;28;20185;-53
2022/01/01 09:27:38;;;;;;;3.22;2.90;;;11.50;99.90;;;;;;4972708;28;20714;-52
2022/01/01 09:30:04;;;;;;;3.10;2.80;;;11.50;99.90;;;;;;4972359;28;20298;-52
2022/01/01 09:32:30;;;;;;;5.22;2.67;;;11.90;99.90;;;;;;4972492;28;20436;-52
2022/01/01 09:34:56;;;;;;;3.37;3.00;;;12.70;99.90;;;;;;4971970;28;20210;-53
2022/01/01 09:37:23;;;;;;;3.20;2.83;;;14.00;99.90;;;;;;4972407;28;20219;-54
2022/01/01 09:39:49;;;;;;;3.20;2.92;;;15.20;99.90;;;;;;4972567;28;20208;-53
2022/01/01 09:42:16;;;;;;;3.40;2.73;;;16.20;98.10;;;;;;4971912;28;20335;-53
2022/01/01 09:44:42;;;;;;;2.78;2.58;;;16.80;95.30;;;;;;4973394;28;20184;-53
2022/01/01 09:47:08;;;;;;;3.45;3.15;;;16.50;94.90;;;;;;4971200;28;20234;-53
2022/01/01 09:49:34;;;;;;;3.40;3.10;;;16.30;94.70;;;;;;4972226;28;20879;-52
2022/01/01 09:52:00;;;;;;;3.37;3.07;;;16.20;94.70;;;;;;4971633;28;20447;-52
2022/01/01 09:54:30;;;;;;;3.57;3.27;;;15.80;94.80;;;;;;4972109;28;20435;-52
2022/01/01 09:56:55;;;;;;;3.63;3.28;;;15.60;95.30;;;;;;4972942;28;20668;-52
2022/01/01 09:59:21;;;;;;;3.70;3.40;;;15.20;95.90;;;;;;4973778;28;20228;-53
2022/01/01 10:01:47;;;;;;;3.77;3.40;;;15.40;96.80;;;;;;4979313;28;20627;-52
2022/01/01 10:04:14;;;;;;;3.23;2.93;;;15.40;97.10;;;;;;4972174;28;20258;-53
2022/01/01 10:06:39;;;;;;;2.95;2.65;;;16.10;96.60;;;;;;4971487;28;20203;-53
2022/01/01 10:09:07;;;;;;;2.90;2.70;;;17.00;95.80;;;;;;4971900;28;20208;-54
2022/01/01 10:11:33;;;;;;;2.55;2.35;;;17.80;94.30;;;;;;4971120;28;20199;-54
2022/01/01 10:14:05;;;;;;;3.80;3.50;;;18.60;93.10;;;;;;4983930;28;20196;-54
2022/01/01 10:16:31;;;;;;;5.28;3.15;;;18.80;91.60;;;;;;4972264;28;20196;-53
2022/01/01 10:18:57;;;;;;;3.07;2.77;;;18.50;91.10;;;;;;4971717;28;20208;-54
2022/01/01 10:21:27;;;;;;;4.18;3.22;;;18.30;91.80;;;;;;4971410;28;20968;-54
2022/01/01 10:23:56;;;;;;;3.83;3.00;;;18.50;92.30;;;;;;4971372;28;20306;-53
2022/01/01 10:29:14;;;;;;;3.00;2.70;;;18.80;92.10;;;;;;4982007;28;20230;-54
2022/01/01 10:31:58;;;;;;;3.80;3.00;;;19.20;91.70;;;;;;4971749;28;20685;-54
2022/01/01 10:34:35;;;;;;;2.95;2.63;;;19.40;91.20;;;;;;4979576;28;20673;-53
2022/01/01 10:37:02;;;;;;;3.40;3.10;;;19.50;91.20;;;;;;4978651;28;20184;-54
2022/01/01 10:39:28;;;;;;;4.75;3.80;;;19.60;91.30;;;;;;4971751;28;20292;-54
2022/01/01 10:41:56;;;;;;;3.10;2.50;;;20.10;90.50;;;;;;4971247;28;20197;-54
2022/01/01 10:44:33;;;;;;;4.67;2.97;;;20.10;90.70;;;;;;4971345;28;20456;-54
2022/01/01 10:47:04;;;;;;;3.90;3.30;;;20.90;88.90;;;;;;4971526;28;20466;-54
2022/01/01 10:49:37;;;;;;;2.90;2.70;;;20.30;88.40;;;;;;4985747;28;20527;-54
2022/01/01 10:52:15;;;;;;;2.83;2.50;;;19.70;90.40;;;;;;4972219;28;20246;-54
2022/01/01 10:54:58;;;;;;;2.97;2.77;;;19.90;90.90;;;;;;4971721;28;20434;-54
2022/01/01 10:57:28;;;;;;;2.40;2.20;;;20.20;90.30;;;;;;4984464;28;20811;-54
2022/01/01 11:00:08;;;;;;;3.43;2.50;;;20.50;90.20;;;;;;4971134;28;20594;-54
2022/01/01 11:02:38;;;;;;;3.00;2.70;;;21.10;87.50;;;;;;4971348;28;21008;-53
2022/01/01 11:05:04;;;;;;;5.80;4.32;;;21.20;86.90;;;;;;4972532;28;20535;-53
2022/01/01 11:07:30;;;;;;;5.75;5.25;;;20.90;83.50;;;;;;4975993;28;20713;-54
2022/01/01 11:09:58;;;;;;;5.63;5.13;;;20.30;83.50;;;;;;4983740;28;20216;-53
2022/01/01 11:12:27;;;;;;;5.78;5.28;;;19.80;83.90;;;;;;4974690;28;20188;-54
2022/01/01 11:14:55;;;;;;;5.47;4.72;;;19.40;85.40;;;;;;4975108;28;20362;-54
2022/01/01 11:17:22;;;;;;;5.75;5.22;;;18.90;86.70;;;;;;4975102;28;20191;-53
2022/01/01 11:19:48;;;;;;;5.40;4.38;;;19.00;87.90;;;;;;4975277;28;20216;-53
2022/01/01 11:22:16;;;;;;;5.00;4.57;;;19.00;87.50;;;;;;4974456;28;20572;-54
2022/01/01 11:24:42;;;;;;;7.35;4.80;;;19.10;87.30;;;;;;4977483;28;20787;-53
2022/01/01 11:27:09;;;;;;;5.15;4.75;;;19.00;87.10;;;;;;4974090;28;20709;-52
2022/01/01 11:29:35;;;;;;;6.57;5.35;;;18.70;87.70;;;;;;4974798;28;20203;-53
2022/01/01 11:32:04;;;;;;;5.95;5.30;;;18.20;89.00;;;;;;4974909;28;20180;-54
2022/01/01 11:34:35;;;;;;;6.18;5.57;;;18.20;90.10;;;;;;4975078;28;20546;-52
2022/01/01 11:37:01;;;;;;;6.05;5.50;;;18.10;90.00;;;;;;4976835;28;20724;-53
2022/01/01 11:39:27;;;;;;;4.75;4.30;;;18.30;90.40;;;;;;4974654;28;20247;-53
2022/01/01 11:42:12;;;;;;;7.65;6.85;;;18.30;90.70;;;;;;4976918;28;20266;-53
2022/01/01 11:44:41;;;;;;;5.95;4.90;;;18.10;90.80;;;;;;4977569;28;20184;-53
2022/01/01 11:47:16;;;;;;;5.32;4.90;;;18.10;91.00;;;;;;4974210;28;20183;-53
2022/01/01 11:49:41;;;;;;;5.18;4.78;;;18.10;90.90;;;;;;4974205;28;20632;-53
2022/01/01 11:52:07;;;;;;;6.20;5.17;;;18.30;91.20;;;;;;4973631;28;20172;-54
2022/01/01 11:54:42;;;;;;;7.67;5.10;;;18.10;92.20;;;;;;4974276;28;20184;-53
2022/01/01 11:57:18;;;;;;;5.95;5.35;;;17.90;91.40;;;;;;4974674;28;20710;-53
2022/01/01 11:59:48;;;;;;;5.55;5.05;;;17.90;91.70;;;;;;4974763;28;20274;-53
2022/01/01 12:02:20;;;;;;;5.85;5.15;;;17.60;92.20;;;;;;4974216;28;20200;-53
2022/01/01 12:04:48;;;;;;;6.43;5.50;;;17.40;92.60;;;;;;4973747;28;20184;-54
2022/01/01 12:07:29;;;;;;;5.55;4.60;;;17.40;93.10;;;;;;4973477;28;20210;-52
2022/01/01 12:10:07;;;;;;;5.95;5.35;;;17.10;93.20;;;;;;4974184;28;20757;-52
2022/01/01 12:12:41;;;;;;;5.05;4.65;;;17.50;93.30;;;;;;4973862;28;20191;-52
2022/01/01 12:15:10;;;;;;;4.80;4.40;;;17.40;93.30;;;;;;4973902;28;20200;-52
2022/01/01 12:17:43;;;;;;;5.75;5.15;;;17.10;93.20;;;;;;4974707;28;20199;-53
2022/01/01 12:20:22;;;;;;;5.75;5.25;;;17.80;93.70;;;;;;4973470;28;20603;-53
2022/01/01 12:22:49;;;;;;;5.10;3.80;;;17.20;93.40;;;;;;4973965;28;20303;-52
2022/01/01 12:25:17;;;;;;;10.43;7.25;;;17.30;93.80;;;;;;4973677;28;20266;-53
2022/01/01 12:27:47;;;;;;;6.03;4.88;;;17.00;94.40;;;;;;4973097;28;20192;-52
2022/01/01 12:30:31;;;;;;;6.72;5.75;;;16.90;94.40;;;;;;4973605;28;20253;-53
2022/01/01 12:32:57;;;;;;;5.20;4.30;;;17.30;94.80;;;;;;4974143;28;20769;-53
2022/01/01 12:35:54;;;;;;;5.30;4.80;;;16.80;94.70;;;;;;4973686;28;20271;-53
2022/01/01 12:38:23;;;;;;;9.27;5.63;;;16.40;94.90;;;;;;4971496;28;20319;-53
2022/01/01 12:40:55;;;;;;;8.80;7.03;;;16.40;95.50;;;;;;4973386;28;20190;-53
2022/01/01 12:43:21;;;;;;;8.27;7.47;;;16.20;95.60;;;;;;4979085;28;20209;-53
2022/01/01 12:45:52;;;;;;;8.60;7.70;;;16.40;94.70;;;;;;4973234;28;20556;-52